Bartlesville, Oklahoma
Current Conditions -  °F | °C
As of 8:21 AM on Monday 22 Dec 2014 (Local Time) from KBVO Reporting Station
Haze Haze  
Wind Chill: 42°   Ceiling: 300
Heat Index: 46°   Visibility: 2mi
Dew Point: 45°   Wind: 7mph
Humidity: 96%   Direction: 140°SE
Pressure: 29.59"   Gusts: NA
Location:  36.75°N, 95.98°W
Report Text: KBVO 221421Z AUTO 14006KT 2SM BR OVC003 08/07 A2959 RMK AO2 T00780072
Loading
Personal Weather Stations






























Interactive Weather Map New forecast layout! Learn more

10-Day Weather Forecast

Advertisements
Track Severe Weather on mobile